Time;durP1;ratioP1;P1;durP2;ratioP2;P2;SDS_P1;SDS_P2;PMS_P1;PMS_P2;Temp;Humidity;BMP_temperature;BMP_pressure;BME280_temperature;BME280_humidity;BME280_pressure;Samples;Min_cycle;Max_cycle;Signal;HPM_P1;HPM_P2
2022/08/02 00:00:49;;;;;;;6.43;3.22;;;;;;;13.41;83.39;101889.22;6126140;23;20006;-75
2022/08/02 00:03:15;;;;;;;5.90;2.80;;;;;;;13.38;82.54;101886.81;6126185;23;20089;-76
2022/08/02 00:05:40;;;;;;;5.75;2.47;;;;;;;13.29;82.56;101877.78;6125575;23;20006;-74
2022/08/02 00:08:06;;;;;;;5.55;2.60;;;;;;;13.38;82.30;101887.63;6125853;23;20006;-77
2022/08/02 00:10:32;;;;;;;8.02;2.80;;;;;;;13.34;82.02;101883.53;6125807;23;20077;-74
2022/08/02 00:12:57;;;;;;;8.13;3.30;;;;;;;13.36;81.89;101883.44;6125631;23;20009;-75
2022/08/02 00:15:23;;;;;;;6.07;2.88;;;;;;;13.32;81.83;101882.78;6125855;23;20006;-75
2022/08/02 00:17:48;;;;;;;8.02;2.80;;;;;;;13.17;82.07;101855.09;6125335;23;20380;-74
2022/08/02 00:20:14;;;;;;;5.68;3.10;;;;;;;13.37;82.60;101880.78;6125449;23;20010;-73
2022/08/02 00:22:40;;;;;;;5.85;2.80;;;;;;;13.30;82.68;101870.84;6125436;23;20009;-75
2022/08/02 00:25:06;;;;;;;5.25;2.85;;;;;;;13.33;82.71;101889.66;6125658;23;20006;-74
2022/08/02 00:27:31;;;;;;;4.63;2.63;;;;;;;13.34;83.01;101891.31;6125812;23;20002;-74
2022/08/02 00:29:57;;;;;;;8.88;2.95;;;;;;;13.20;82.92;101868.78;6125489;23;20033;-75
2022/08/02 00:32:23;;;;;;;6.22;3.00;;;;;;;13.31;83.17;101883.72;6125550;23;20085;-74
2022/08/02 00:34:49;;;;;;;6.18;3.03;;;;;;;13.31;83.09;101886.31;6125853;23;20006;-75
2022/08/02 00:37:14;;;;;;;5.85;3.28;;;;;;;13.30;83.20;101883.81;6125517;23;20053;-75
2022/08/02 00:39:41;;;;;;;6.63;2.95;;;;;;;13.20;83.42;101868.78;6125349;23;20006;-74
2022/08/02 00:42:07;;;;;;;5.15;3.08;;;;;;;13.30;83.40;101882.03;6125910;23;20027;-79
2022/08/02 00:44:32;;;;;;;5.65;2.83;;;;;;;13.13;83.37;101854.44;6125291;23;20028;-79
2022/08/02 00:46:58;;;;;;;6.00;3.22;;;;;;;13.31;83.35;101875.94;6125422;23;20002;-75
2022/08/02 00:49:24;;;;;;;5.20;3.17;;;;;;;13.32;83.92;101871.56;6125596;23;20006;-75
2022/08/02 00:51:49;;;;;;;6.65;2.90;;;;;;;13.29;82.72;101870.00;6125703;23;20040;-75
2022/08/02 00:54:14;;;;;;;6.38;3.45;;;;;;;13.23;82.63;101872.09;6125378;23;20435;-74
2022/08/02 00:56:40;;;;;;;8.48;3.88;;;;;;;13.15;82.86;101857.78;6125813;23;20012;-75
2022/08/02 00:59:05;;;;;;;5.80;3.38;;;;;;;13.03;82.29;101829.97;6125564;23;20009;-78
2022/08/02 01:01:37;;;;;;;9.45;3.90;;;;;;;13.11;82.88;101858.06;6099124;23;20014;-75
2022/08/02 01:04:11;;;;;;;8.40;3.30;;;;;;;13.10;83.28;101864.16;6125494;23;20412;-76
2022/08/02 01:06:39;;;;;;;6.68;3.53;;;;;;;12.90;82.20;101836.78;6125336;23;20002;-73
2022/08/02 01:09:05;;;;;;;7.38;3.50;;;;;;;13.02;82.40;101866.34;6125475;23;20013;-75
2022/08/02 01:11:32;;;;;;;8.23;3.88;;;;;;;12.97;82.71;101855.38;6125176;23;20488;-74
2022/08/02 01:14:03;;;;;;;12.05;4.32;;;;;;;12.98;81.43;101867.44;6125568;23;20006;-77
2022/08/02 01:16:31;;;;;;;;;;;;;;;13.02;80.92;101867.19;6114704;23;20458;-72
2022/08/02 01:19:07;;;;;;;7.72;4.10;;;;;;;13.01;81.25;101865.53;6125132;23;19935;-74
2022/08/02 01:22:10;;;;;;;7.97;3.83;;;;;;;13.03;81.18;101863.66;6125527;23;20033;-75
2022/08/02 01:25:03;;;;;;;8.18;4.03;;;;;;;12.99;81.35;101866.53;6007522;23;20015;-75
2022/08/02 01:27:38;;;;;;;7.25;4.20;;;;;;;12.99;80.84;101866.53;6007781;23;20043;-74
2022/08/02 01:30:06;;;;;;;9.93;4.22;;;;;;;12.86;81.49;101851.66;6007717;23;20044;-75
2022/08/02 01:32:36;;;;;;;8.75;4.10;;;;;;;12.89;81.91;101859.28;6007683;23;20011;-75
2022/08/02 01:35:22;;;;;;;7.32;3.80;;;;;;;12.85;81.94;101852.56;6007770;23;20098;-76
2022/08/02 01:37:56;;;;;;;7.35;3.85;;;;;;;12.95;81.29;101860.66;6007755;23;20087;-75
2022/08/02 01:40:29;;;;;;;7.82;3.92;;;;;;;13.01;80.61;101849.97;6007741;23;20018;-75
2022/08/02 01:42:57;;;;;;;7.47;3.85;;;;;;;12.90;81.79;101826.41;6007525;23;20376;-75
2022/08/02 01:45:24;;;;;;;7.80;4.07;;;;;;;13.04;81.04;101848.94;6007587;23;20012;-76
2022/08/02 01:47:51;;;;;;;7.82;4.00;;;;;;;12.99;80.80;101844.03;6007543;23;20008;-76
2022/08/02 01:50:22;;;;;;;8.00;4.00;;;;;;;12.84;81.11;101822.41;6007637;23;20046;-74
2022/08/02 01:52:50;;;;;;;7.75;4.25;;;;;;;12.77;81.23;101826.25;6007294;23;20042;-75
2022/08/02 01:55:22;;;;;;;9.25;4.30;;;;;;;12.87;81.71;101836.94;6007536;23;20015;-75
2022/08/02 01:57:54;;;;;;;7.35;4.35;;;;;;;12.86;81.43;101836.09;6007666;23;20442;-76
2022/08/02 02:00:21;;;;;;;8.90;4.43;;;;;;;12.82;81.25;101828.59;6024777;23;20010;-75
2022/08/02 02:02:48;;;;;;;7.63;4.40;;;;;;;12.86;80.33;101837.84;6125747;23;20432;-75
2022/08/02 02:05:19;;;;;;;11.40;4.68;;;;;;;12.83;81.70;101838.03;6127098;23;20066;-76
2022/08/02 02:07:48;;;;;;;8.18;4.50;;;;;;;12.87;81.09;101839.53;6126911;23;20370;-75
2022/08/02 02:10:16;;;;;;;8.38;4.30;;;;;;;12.70;80.05;101818.91;6127166;23;20428;-75
2022/08/02 02:12:48;;;;;;;7.63;4.32;;;;;;;12.73;81.18;101819.56;6126834;23;20006;-75
2022/08/02 02:15:14;;;;;;;11.57;4.50;;;;;;;12.73;80.32;101816.16;6126880;23;20006;-75
2022/08/02 02:17:44;;;;;;;7.47;4.80;;;;;;;12.79;81.02;101821.00;6126781;23;20013;-74
2022/08/02 02:20:15;;;;;;;14.63;5.07;;;;;;;12.88;80.58;101818.72;6126915;23;20029;-76
2022/08/02 02:22:41;;;;;;;8.70;4.65;;;;;;;12.88;80.55;101812.66;6126384;23;20006;-75
2022/08/02 02:25:08;;;;;;;9.98;5.05;;;;;;;12.80;81.67;101794.16;6126927;23;20010;-76
2022/08/02 02:27:36;;;;;;;8.52;4.60;;;;;;;12.88;80.69;101804.91;6126576;23;20002;-79
2022/08/02 02:30:03;;;;;;;17.40;4.78;;;;;;;12.84;81.24;101799.06;6100998;23;20102;-75
2022/08/02 02:32:29;;;;;;;8.63;4.22;;;;;;;12.87;81.29;101803.22;6126902;23;20002;-75
2022/08/02 02:34:55;;;;;;;9.23;4.32;;;;;;;12.84;80.67;101799.06;6126467;23;20006;-74
2022/08/02 02:37:25;;;;;;;8.95;4.80;;;;;;;12.68;80.29;101781.88;6126745;23;20424;-78
2022/08/02 02:39:53;;;;;;;7.07;4.60;;;;;;;12.74;80.92;101791.91;6126642;23;20022;-75
2022/08/02 02:42:23;;;;;;;9.73;4.68;;;;;;;12.71;82.36;101799.84;6126710;23;20005;-75
2022/08/02 02:44:51;;;;;;;9.05;4.75;;;;;;;12.56;82.36;101781.63;6126666;23;20034;-75
2022/08/02 02:47:18;;;;;;;8.07;4.90;;;;;;;12.63;82.40;101801.09;6126917;23;20006;-75
2022/08/02 02:49:46;;;;;;;7.25;4.47;;;;;;;12.56;82.05;101804.13;6126160;23;20009;-74
2022/08/02 02:52:13;;;;;;;8.30;5.20;;;;;;;12.53;82.27;101806.91;6126581;23;20060;-75
2022/08/02 02:54:40;;;;;;;7.95;5.07;;;;;;;12.50;82.78;101801.91;6126182;23;20045;-75
2022/08/02 02:57:07;;;;;;;9.05;4.38;;;;;;;12.49;82.74;101806.25;6126703;23;20013;-75
2022/08/02 02:59:37;;;;;;;9.50;4.43;;;;;;;12.49;82.66;101797.63;6126448;23;20305;-75
2022/08/02 03:02:04;;;;;;;10.55;4.60;;;;;;;12.41;82.68;101785.09;6126375;23;20006;-74
2022/08/02 03:04:31;;;;;;;8.30;4.25;;;;;;;12.45;82.92;101788.34;6126659;23;20006;-77
2022/08/02 03:06:56;;;;;;;8.00;4.70;;;;;;;12.33;82.71;101772.56;6126658;23;20017;-75
2022/08/02 03:09:22;;;;;;;8.30;4.95;;;;;;;12.44;83.03;101786.69;6126202;23;20006;-75
2022/08/02 03:11:47;;;;;;;10.00;4.60;;;;;;;12.47;83.24;101792.50;6126792;23;20077;-75
2022/08/02 03:14:13;;;;;;;7.50;4.50;;;;;;;12.30;83.63;101775.34;6125662;23;20077;-74
2022/08/02 03:16:56;;;;;;;8.60;4.88;;;;;;;12.41;83.23;101799.81;6126247;23;20337;-74
2022/08/02 03:19:22;;;;;;;10.40;5.18;;;;;;;12.29;83.92;101772.81;6126064;23;20010;-75
2022/08/02 03:21:49;;;;;;;8.98;5.10;;;;;;;12.46;84.08;101795.19;6126556;23;20006;-73
2022/08/02 03:24:15;;;;;;;10.80;5.10;;;;;;;12.45;83.85;101793.53;6126014;23;20013;-75
2022/08/02 03:26:41;;;;;;;8.30;5.05;;;;;;;12.47;84.08;101797.69;6126394;23;20010;-75
2022/08/02 03:29:07;;;;;;;14.55;5.45;;;;;;;12.44;84.34;101797.88;6126211;23;20005;-74
2022/08/02 03:31:34;;;;;;;10.23;5.70;;;;;;;12.47;84.70;101802.88;6126212;23;20002;-76
2022/08/02 03:34:00;;;;;;;11.88;5.75;;;;;;;12.47;84.40;101800.28;6126070;23;20077;-75
2022/08/02 03:36:31;;;;;;;11.18;5.43;;;;;;;12.45;84.72;101793.53;6126100;23;20010;-76
2022/08/02 03:38:59;;;;;;;10.68;5.50;;;;;;;12.30;84.89;101766.72;6126234;23;20006;-74
2022/08/02 03:41:24;;;;;;;9.95;5.78;;;;;;;12.34;85.16;101782.00;6126341;23;20002;-76
2022/08/02 03:43:51;;;;;;;11.88;5.97;;;;;;;12.40;85.18;101780.84;6126044;23;20096;-75
2022/08/02 03:46:20;;;;;;;11.02;5.63;;;;;;;12.37;85.34;101775.81;6125815;23;20054;-75
2022/08/02 03:48:50;;;;;;;9.55;5.82;;;;;;;12.35;85.11;101781.06;6125848;23;20006;-74
2022/08/02 03:51:15;;;;;;;12.10;6.05;;;;;;;12.30;85.10;101774.50;6126068;23;20005;-75
2022/08/02 03:53:41;;;;;;;10.23;6.03;;;;;;;12.29;85.48;101772.81;6125723;23;20371;-75
2022/08/02 03:56:08;;;;;;;10.35;5.97;;;;;;;12.24;85.74;101764.47;6126209;23;20012;-77
2022/08/02 03:58:34;;;;;;;14.77;6.47;;;;;;;12.24;85.77;101760.13;6126246;23;20352;-75
2022/08/02 04:00:59;;;;;;;9.50;5.72;;;;;;;12.25;85.79;101769.56;6125560;23;20006;-75
2022/08/02 04:03:25;;;;;;;10.43;5.70;;;;;;;12.29;85.65;101768.50;6113749;23;20081;-75
2022/08/02 04:05:51;;;;;;;10.75;6.22;;;;;;;12.08;86.25;101733.38;6125972;23;20014;-75
2022/08/02 04:08:17;;;;;;;10.27;5.97;;;;;;;12.24;86.04;101754.94;6126045;23;20017;-75
2022/08/02 04:13:32;;;;;;;10.80;5.85;;;;;;;12.38;86.22;101758.50;6125970;23;20046;-75
2022/08/02 04:16:05;;;;;;;12.30;6.00;;;;;;;12.46;85.78;101759.75;6126254;23;20314;-74
2022/08/02 04:18:38;;;;;;;10.07;5.93;;;;;;;12.44;85.72;101748.66;6125518;23;20022;-75
2022/08/02 04:21:06;;;;;;;10.25;5.78;;;;;;;12.59;86.42;101762.53;6125475;23;20010;-75
2022/08/02 04:23:36;;;;;;;10.55;5.80;;;;;;;12.65;85.67;101762.16;6125503;23;20012;-73
2022/08/02 04:26:03;;;;;;;12.35;5.85;;;;;;;12.67;85.64;101756.88;6125323;23;20006;-74
2022/08/02 04:28:30;;;;;;;9.48;5.05;;;;;;;12.85;87.07;101761.84;6125491;23;20051;-75
2022/08/02 04:30:57;;;;;;;8.43;5.30;;;;;;;13.04;86.91;101768.56;6125654;23;20009;-78
2022/08/02 04:33:24;;;;;;;9.02;4.88;;;;;;;13.24;87.84;101755.28;6125231;23;20002;-78
2022/08/02 04:35:49;;;;;;;11.40;5.93;;;;;;;13.27;85.07;101749.06;6125612;23;20045;-77
2022/08/02 04:38:15;;;;;;;8.65;5.00;;;;;;;13.62;85.32;101770.31;6125868;23;20009;-77
2022/08/02 04:40:49;;;;;;;9.40;5.18;;;;;;;13.69;85.45;101762.06;6125913;23;20065;-77
2022/08/02 04:43:15;;;;;;;8.02;5.25;;;;;;;13.60;84.36;101746.22;6125630;23;20002;-78
2022/08/02 04:45:41;;;;;;;8.57;5.18;;;;;;;13.58;83.23;101737.72;6125745;23;20388;-78
2022/08/02 04:48:07;;;;;;;11.13;5.57;;;;;;;13.64;82.57;101739.91;6125687;23;20010;-76
2022/08/02 04:50:33;;;;;;;11.13;5.38;;;;;;;13.59;81.65;101731.59;6125490;23;20068;-76
2022/08/02 04:52:58;;;;;;;8.13;5.50;;;;;;;13.76;83.07;101757.31;6125311;23;20364;-79
2022/08/02 04:55:27;;;;;;;8.15;5.18;;;;;;;13.83;82.82;101757.78;6125017;23;20020;-76
2022/08/02 04:57:59;;;;;;;9.70;5.28;;;;;;;13.80;82.59;101756.22;6098316;23;20006;-77
2022/08/02 05:00:26;;;;;;;12.38;5.55;;;;;;;13.89;83.11;101755.66;6125564;23;20006;-78
2022/08/02 05:02:54;;;;;;;13.77;6.00;;;;;;;13.75;82.05;101737.47;6125532;23;20013;-75
2022/08/02 05:05:21;;;;;;;11.45;6.00;;;;;;;13.92;81.78;101745.06;6125583;23;20016;-80
2022/08/02 05:07:46;;;;;;;9.93;5.60;;;;;;;13.99;81.40;101735.97;6125447;23;20491;-78
2022/08/02 05:10:12;;;;;;;11.43;5.82;;;;;;;14.23;81.58;101732.75;6125418;23;20002;-76
2022/08/02 05:12:38;;;;;;;10.45;6.28;;;;;;;14.35;80.12;101735.41;6125920;23;20033;-77
2022/08/02 05:15:04;;;;;;;10.00;5.15;;;;;;;14.84;79.67;101757.38;6125384;23;20014;-78
2022/08/02 05:17:29;;;;;;;10.95;6.03;;;;;;;15.04;79.21;101740.44;6125132;23;20002;-77
2022/08/02 05:19:54;;;;;;;9.63;6.03;;;;;;;15.36;77.62;101756.50;6124520;23;20014;-77
2022/08/02 05:22:21;;;;;;;11.60;5.57;;;;;;;15.73;75.90;101732.22;6127339;23;20085;-73
2022/08/02 05:24:46;;;;;;;10.57;6.03;;;;;;;16.21;73.24;101753.09;6125247;23;20401;-76
2022/08/02 05:27:12;;;;;;;12.15;6.22;;;;;;;16.63;70.41;101743.94;6125862;23;20088;-77
2022/08/02 05:29:37;;;;;;;10.27;6.07;;;;;;;17.12;68.94;101735.09;6125501;23;20056;-77
2022/08/02 05:32:02;;;;;;;11.48;6.53;;;;;;;17.64;67.36;101735.44;6125204;23;20804;-75
2022/08/02 05:34:28;;;;;;;11.13;5.43;;;;;;;18.39;65.73;101730.31;6125108;23;20045;-74
2022/08/02 05:36:53;;;;;;;11.02;6.20;;;;;;;18.86;62.21;101730.78;6125477;23;20002;-78
2022/08/02 05:39:18;;;;;;;11.35;6.40;;;;;;;19.30;61.13;101710.50;6127008;23;20073;-79
2022/08/02 05:41:44;;;;;;;9.85;6.53;;;;;;;20.03;58.36;101704.09;6127158;23;20006;-76
2022/08/02 05:44:09;;;;;;;12.48;6.32;;;;;;;21.09;55.99;101726.81;6127019;23;20010;-79
2022/08/02 05:46:34;;;;;;;10.00;6.00;;;;;;;21.67;54.48;101723.97;6127149;23;20033;-76
2022/08/02 05:49:00;;;;;;;11.38;6.03;;;;;;;22.25;52.71;101727.06;6126925;23;20012;-76
2022/08/02 05:51:38;;;;;;;11.65;6.60;;;;;;;23.06;51.85;101726.84;6127096;23;19997;-76
2022/08/02 05:54:09;;;;;;;10.32;6.28;;;;;;;23.18;51.36;101735.28;6126922;23;20014;-74
2022/08/02 05:56:46;;;;;;;9.63;6.15;;;;;;;23.52;51.74;101750.28;6127234;23;20001;-77
2022/08/02 05:59:16;;;;;;;11.52;6.68;;;;;;;23.41;49.67;101739.06;6127264;23;20076;-76
2022/08/02 06:01:44;;;;;;;9.63;6.05;;;;;;;23.84;49.31;101750.44;6127326;23;20006;-75
2022/08/02 06:04:25;;;;;;;11.55;6.88;;;;;;;24.33;48.30;101747.06;6127572;23;20337;-78
2022/08/02 06:06:54;;;;;;;9.85;6.57;;;;;;;24.54;47.61;101708.63;6127508;23;20010;-75
2022/08/02 06:09:21;;;;;;;10.15;6.00;;;;;;;23.94;48.23;101756.38;6127270;23;20380;-79
2022/08/02 06:11:51;;;;;;;12.10;6.90;;;;;;;22.49;51.44;101752.75;6127215;23;20002;-76
2022/08/02 06:14:17;;;;;;;9.27;6.00;;;;;;;21.69;54.46;101759.63;6127152;23;20002;-74
2022/08/02 06:16:43;;;;;;;12.57;7.55;;;;;;;21.26;56.62;101756.75;6126970;23;20010;-74
2022/08/02 06:19:11;;;;;;;12.18;7.20;;;;;;;20.88;57.13;101732.25;6123592;23;20436;-75
2022/08/02 06:21:39;;;;;;;11.05;8.07;;;;;;;21.50;56.98;101754.47;6127125;23;20006;-76
2022/08/02 06:24:07;;;;;;;10.93;6.97;;;;;;;22.20;54.75;101747.72;6127111;23;20064;-77
2022/08/02 06:26:35;;;;;;;12.55;8.27;;;;;;;22.79;54.22;101753.28;6099908;23;20400;-74
2022/08/02 06:29:01;;;;;;;10.50;6.50;;;;;;;23.47;51.91;101758.66;6127009;23;20009;-80
2022/08/02 06:31:26;;;;;;;10.88;8.02;;;;;;;23.34;51.64;101751.19;6126635;23;20002;-76
2022/08/02 06:33:52;;;;;;;12.10;7.55;;;;;;;23.68;51.85;101742.47;6126481;23;20453;-80
2022/08/02 06:36:50;;;;;;;13.48;8.30;;;;;;;24.71;52.00;101742.94;6126671;23;20336;-76
2022/08/02 06:39:27;;;;;;;12.07;7.82;;;;;;;25.52;48.52;101715.47;6126837;23;20008;-80
2022/08/02 06:41:57;;;;;;;10.32;7.10;;;;;;;26.25;46.61;101733.53;6126398;23;20057;-83
2022/08/02 06:44:23;;;;;;;14.82;7.90;;;;;;;26.79;44.46;101731.59;6126860;23;20309;-83
2022/08/02 06:46:49;;;;;;;12.13;6.95;;;;;;;26.97;43.77;101695.97;6126817;23;20013;-79
2022/08/02 06:49:14;;;;;;;10.98;6.97;;;;;;;27.58;42.86;101737.19;6126657;23;20413;-78
2022/08/02 06:51:39;;;;;;;9.90;6.63;;;;;;;28.22;41.98;101739.94;6127078;23;20014;-79
2022/08/02 06:54:05;;;;;;;10.48;6.90;;;;;;;28.34;41.68;101729.63;6126986;23;20104;-79
2022/08/02 06:56:30;;;;;;;10.38;6.80;;;;;;;28.04;41.44;101694.41;6126404;23;20451;-80
2022/08/02 06:58:55;;;;;;;8.70;6.63;;;;;;;28.43;41.17;101669.22;6100466;23;20014;-80
2022/08/02 07:01:21;;;;;;;13.63;7.35;;;;;;;28.84;40.84;101725.09;6126302;23;20006;-80
2022/08/02 07:03:46;;;;;;;11.52;6.80;;;;;;;28.24;40.68;101604.28;6100288;23;20016;-80
2022/08/02 07:06:12;;;;;;;9.98;7.57;;;;;;;29.16;40.61;101702.38;6127014;23;20412;-81
2022/08/02 07:08:38;;;;;;;10.15;6.43;;;;;;;29.29;40.52;101721.03;6126530;23;20448;-77
2022/08/02 07:11:04;;;;;;;11.98;8.32;;;;;;;29.33;40.80;101732.94;6100266;23;20010;-77
2022/08/02 07:13:29;;;;;;;13.02;8.13;;;;;;;29.25;40.56;101735.78;6126796;23;20317;-78
2022/08/02 07:15:55;;;;;;;12.77;7.93;;;;;;;29.22;40.55;101730.84;6126375;23;20016;-80
2022/08/02 07:18:22;;;;;;;9.05;5.50;;;;;;;29.50;40.99;101733.47;6126235;23;20018;-79
2022/08/02 07:20:48;;;;;;;12.38;7.47;;;;;;;29.92;39.87;101724.34;6126121;23;20002;-79
2022/08/02 07:23:14;;;;;;;11.57;7.70;;;;;;;29.35;39.84;101709.63;6125277;23;20064;-79
2022/08/02 07:25:43;;;;;;;12.57;8.25;;;;;;;28.90;41.86;101703.03;6126514;23;20077;-79
2022/08/02 07:28:09;;;;;;;12.90;9.18;;;;;;;28.52;42.16;101695.44;6126571;23;20055;-76
2022/08/02 07:30:35;;;;;;;12.98;8.75;;;;;;;27.88;43.57;101719.38;6126583;23;20002;-78
2022/08/02 07:33:01;;;;;;;12.38;8.23;;;;;;;27.01;45.70;101711.31;6126384;23;20061;-82
2022/08/02 07:38:43;;;;;;;12.70;8.52;;;;;;;23.60;52.72;101516.50;6037357;23;20131;-79
2022/08/02 07:41:21;;;;;;;13.02;8.43;;;;;;;23.22;53.79;101546.09;6036971;23;20015;-79
2022/08/02 07:43:56;;;;;;;12.68;8.32;;;;;;;23.77;56.08;101717.75;6036550;23;20009;-78
2022/08/02 07:46:21;;;;;;;12.13;8.77;;;;;;;23.10;57.02;101672.00;6036804;23;20007;-77
2022/08/02 07:48:47;;;;;;;12.65;7.63;;;;;;;23.22;58.50;101720.84;6036798;23;20003;-75
2022/08/02 07:51:13;;;;;;;12.13;7.88;;;;;;;23.13;58.35;101719.97;6036340;23;20007;-74
2022/08/02 07:53:39;;;;;;;11.90;6.88;;;;;;;22.99;58.70;101725.81;6036664;23;20011;-74
2022/08/02 07:56:04;;;;;;;8.65;6.68;;;;;;;22.77;59.47;101719.22;6036812;23;20007;-77
2022/08/02 07:58:29;;;;;;;11.13;7.28;;;;;;;22.61;60.05;101722.59;6036666;23;20022;-75
2022/08/02 08:00:55;;;;;;;8.85;6.43;;;;;;;22.55;61.95;101719.72;6036886;23;20015;-81
2022/08/02 08:03:20;;;;;;;9.23;6.22;;;;;;;22.35;61.80;101686.66;6036859;23;20082;-81
2022/08/02 08:05:46;;;;;;;8.48;5.40;;;;;;;22.34;60.71;101696.38;6036862;23;20468;-78
2022/08/02 08:08:11;;;;;;;9.00;5.20;;;;;;;22.40;60.45;101711.53;6036841;23;20034;-79
2022/08/02 08:10:39;;;;;;;9.68;4.90;;;;;;;22.53;62.03;101713.78;6036850;23;20017;-75
2022/08/02 08:13:04;;;;;;;9.63;5.82;;;;;;;22.63;62.62;101708.44;6036621;23;20007;-74
2022/08/02 08:15:29;;;;;;;9.30;6.03;;;;;;;22.60;61.65;101710.38;6092624;23;20014;-74
2022/08/02 08:17:55;;;;;;;7.75;5.15;;;;;;;22.60;61.72;101706.91;6125855;23;20013;-73
2022/08/02 08:20:20;;;;;;;10.10;5.53;;;;;;;22.54;60.79;101702.28;6125834;23;20084;-73
2022/08/02 08:22:46;;;;;;;8.75;4.90;;;;;;;22.50;61.24;101704.38;6125914;23;20420;-73
2022/08/02 08:25:12;;;;;;;9.45;4.90;;;;;;;22.44;61.53;101712.91;6126099;23;20001;-74
2022/08/02 08:27:37;;;;;;;6.85;4.32;;;;;;;22.47;62.24;101693.34;6125577;23;20013;-73
2022/08/02 08:30:03;;;;;;;6.22;3.85;;;;;;;22.70;62.38;101698.91;6125610;23;20495;-73
2022/08/02 08:32:28;;;;;;;5.88;3.75;;;;;;;22.71;61.60;101672.44;6125828;23;20053;-73
2022/08/02 08:34:54;;;;;;;7.43;3.63;;;;;;;22.89;60.62;101680.31;6125883;23;20080;-73
2022/08/02 08:37:19;;;;;;;5.40;2.90;;;;;;;23.26;61.05;101698.44;6125952;23;20006;-74
2022/08/02 08:39:45;;;;;;;5.97;2.88;;;;;;;23.31;57.93;101703.25;6125416;23;20006;-74
2022/08/02 08:42:10;;;;;;;4.18;2.60;;;;;;;23.29;56.23;101699.94;6126083;23;20013;-74
2022/08/02 08:44:36;;;;;;;5.45;2.80;;;;;;;23.28;57.34;101706.19;6124437;23;20021;-72
2022/08/02 08:47:03;;;;;;;4.70;2.70;;;;;;;23.32;56.67;101708.38;6126337;23;20085;-73
2022/08/02 08:49:35;;;;;;;4.45;2.40;;;;;;;23.38;57.04;101712.16;6126344;23;20006;-73
2022/08/02 08:52:05;;;;;;;4.30;2.63;;;;;;;23.41;55.61;101709.22;6125406;23;20010;-73
2022/08/02 08:54:33;;;;;;;4.00;2.25;;;;;;;23.46;55.24;101718.28;6125252;23;20014;-74
2022/08/02 08:56:59;;;;;;;6.28;2.33;;;;;;;23.55;55.79;101702.50;6125485;23;20467;-73
2022/08/02 08:59:24;;;;;;;4.93;2.38;;;;;;;23.65;55.34;101701.41;6125664;23;20009;-75
2022/08/02 09:01:50;;;;;;;4.75;2.53;;;;;;;23.68;55.44;101702.91;6125750;23;20010;-74
2022/08/02 09:04:16;;;;;;;4.38;2.15;;;;;;;23.57;53.37;101706.63;6125689;23;20002;-74
2022/08/02 09:06:41;;;;;;;4.80;2.15;;;;;;;23.44;53.30;101691.28;6125624;23;20002;-74
2022/08/02 09:09:07;;;;;;;4.35;1.80;;;;;;;23.47;52.66;101709.41;6125509;23;20032;-76
2022/08/02 09:11:33;;;;;;;4.78;2.00;;;;;;;23.42;50.89;101708.25;6125952;23;20006;-75
2022/08/02 09:14:00;;;;;;;4.05;2.00;;;;;;;23.25;50.93;101696.81;6127096;23;20089;-74
2022/08/02 09:16:39;;;;;;;3.00;1.70;;;;;;;23.30;52.02;101706.84;6127512;23;20077;-73
2022/08/02 09:19:22;;;;;;;5.55;1.77;;;;;;;23.27;52.04;101696.63;6127537;23;20037;-75
2022/08/02 09:22:00;;;;;;;4.25;2.10;;;;;;;23.39;52.02;101713.81;6127413;23;20006;-74
2022/08/02 09:24:26;;;;;;;3.83;2.00;;;;;;;23.23;51.32;101668.97;6127667;23;20005;-74
2022/08/02 09:26:51;;;;;;;4.97;2.35;;;;;;;23.53;52.84;101707.13;6127445;23;20084;-74
2022/08/02 09:29:20;;;;;;;5.05;2.28;;;;;;;23.62;52.75;101703.56;6127308;23;20002;-74
2022/08/02 09:31:46;;;;;;;3.70;1.70;;;;;;;23.71;51.78;101698.16;6127770;23;20013;-73
2022/08/02 09:34:11;;;;;;;4.05;2.30;;;;;;;23.58;51.24;101668.72;6127192;23;20010;-73
2022/08/02 09:36:38;;;;;;;3.45;1.90;;;;;;;23.81;52.08;101697.19;6127400;23;20006;-71
2022/08/02 09:39:05;;;;;;;7.03;2.78;;;;;;;23.99;52.46;101690.78;6127737;23;20002;-72
2022/08/02 09:41:33;;;;;;;4.28;2.10;;;;;;;24.06;51.12;101700.66;6126903;23;20006;-73
2022/08/02 09:44:01;;;;;;;3.92;1.83;;;;;;;24.18;50.04;101701.97;6127142;23;20009;-73
2022/08/02 09:46:29;;;;;;;5.07;1.83;;;;;;;24.19;49.44;101679.91;6127047;23;20002;-73
2022/08/02 09:49:11;;;;;;;3.63;1.70;;;;;;;24.36;49.60;101692.13;6101656;23;20013;-74
2022/08/02 09:51:49;;;;;;;4.53;1.88;;;;;;;24.22;48.06;101653.19;6126677;23;20005;-74
2022/08/02 09:54:19;;;;;;;5.50;1.67;;;;;;;24.45;47.70;101671.81;6126830;23;20052;-74
2022/08/02 09:56:53;;;;;;;2.90;1.40;;;;;;;24.59;43.61;101706.31;6127628;23;20002;-77
2022/08/02 09:59:20;;;;;;;3.38;1.60;;;;;;;24.57;44.32;101705.63;6126901;23;20064;-76
2022/08/02 10:01:48;;;;;;;3.67;1.70;;;;;;;24.50;44.53;101704.66;6127608;23;20093;-74
2022/08/02 10:04:14;;;;;;;4.30;1.65;;;;;;;24.51;43.73;101710.78;6127189;23;20077;-73
2022/08/02 10:06:42;;;;;;;4.88;1.70;;;;;;;24.57;43.71;101691.59;6127154;23;20001;-72
2022/08/02 10:09:10;;;;;;;3.10;1.48;;;;;;;24.60;43.17;101702.69;6127352;23;20002;-75
2022/08/02 10:11:35;;;;;;;3.65;1.40;;;;;;;24.63;42.49;101705.97;6127085;23;20006;-71
2022/08/02 10:14:04;;;;;;;3.50;1.50;;;;;;;24.66;42.69;101692.41;6126683;23;20431;-72
2022/08/02 10:16:32;;;;;;;3.80;1.45;;;;;;;24.84;43.18;101701.78;6127080;23;20065;-72
2022/08/02 10:18:59;;;;;;;2.20;1.40;;;;;;;24.79;42.50;101682.19;6126651;23;20020;-71
2022/08/02 10:21:44;;;;;;;3.08;1.52;;;;;;;25.05;42.74;101697.81;6127391;23;20025;-73
2022/08/02 10:24:12;;;;;;;2.40;1.20;;;;;;;25.17;41.66;101697.28;6126412;23;20114;-70
2022/08/02 10:26:41;;;;;;;2.95;1.40;;;;;;;25.27;41.18;101675.94;6126874;23;20065;-74
2022/08/02 10:29:08;;;;;;;3.40;1.73;;;;;;;25.46;41.19;101664.91;6126547;23;20002;-73
2022/08/02 10:31:40;;;;;;;3.40;1.50;;;;;;;25.63;40.17;101678.84;6126550;23;20040;-73
2022/08/02 10:34:11;;;;;;;2.72;1.27;;;;;;;25.75;39.26;101687.25;6126520;23;20017;-74
2022/08/02 10:36:39;;;;;;;4.15;1.73;;;;;;;25.79;40.74;101683.28;6127142;23;20006;-72
2022/08/02 10:39:05;;;;;;;3.10;1.45;;;;;;;25.61;40.31;101632.44;6126714;23;20006;-72
2022/08/02 10:41:44;;;;;;;2.35;1.38;;;;;;;26.06;40.77;101670.50;6126986;23;20097;-72
2022/08/02 10:44:31;;;;;;;3.45;1.30;;;;;;;26.19;40.25;101678.66;6126581;23;20041;-71
2022/08/02 10:47:23;;;;;;;1.90;1.17;;;;;;;26.30;41.37;101689.66;6126537;23;20078;-70
2022/08/02 10:49:54;;;;;;;3.90;1.27;;;;;;;26.01;39.53;101639.28;6126881;23;20006;-71
2022/08/02 10:52:20;;;;;;;;;;;;;;;26.29;39.13;101690.66;6127409;23;20014;-73
2022/08/02 10:54:48;;;;;;;2.00;1.10;;;;;;;26.12;38.95;101681.19;6126709;23;19996;-75
2022/08/02 10:57:35;;;;;;;2.55;1.20;;;;;;;26.12;40.44;101691.78;6126959;23;20011;-73
2022/08/02 11:00:00;;;;;;;3.03;1.33;;;;;;;26.07;38.80;101680.91;6126264;23;20006;-74
2022/08/02 11:02:43;;;;;;;6.80;1.25;;;;;;;26.11;40.48;101678.72;6126724;23;20057;-72
2022/08/02 11:05:11;;;;;;;3.03;1.20;;;;;;;26.08;41.29;101679.09;6126326;23;19998;-72
2022/08/02 11:07:42;;;;;;;3.58;1.05;;;;;;;26.01;39.76;101679.78;6126562;23;20009;-71
2022/08/02 11:10:27;;;;;;;1.83;0.95;;;;;;;25.98;39.26;101661.63;6126528;23;20009;-71
2022/08/02 11:13:16;;;;;;;1.80;1.25;;;;;;;26.14;40.49;101679.19;6126529;23;20009;-71
2022/08/02 11:15:55;;;;;;;1.98;1.35;;;;;;;26.29;38.62;101673.94;6125843;23;20073;-72
2022/08/02 11:18:22;;;;;;;3.35;1.25;;;;;;;26.13;37.04;101650.25;6126255;23;20372;-72
2022/08/02 11:21:19;;;;;;;2.40;1.20;;;;;;;26.08;38.67;101634.91;6126355;23;20024;-72
2022/08/02 11:23:44;;;;;;;2.10;1.27;;;;;;;26.27;36.79;101662.72;6126468;23;20025;-72
2022/08/02 11:26:31;;;;;;;3.15;1.33;;;;;;;26.35;38.55;101673.25;6126302;23;20384;-74
2022/08/02 11:29:02;;;;;;;2.08;1.30;;;;;;;26.31;36.58;101675.41;6125883;23;20006;-72
2022/08/02 11:31:36;;;;;;;1.98;1.15;;;;;;;26.34;38.25;101679.50;6125486;23;20112;-70
2022/08/02 11:34:04;;;;;;;2.55;1.20;;;;;;;26.23;35.83;101670.19;6126251;23;20010;-77